Lavan Island, Lavan Island Airport (OIBV)

NameLavan Island Airport
CityLavan Island
CountryIran
ICAOOIBV
IATALVP
Altitude23 m
CoordinatesGoogle Map
Live Air TrafficLiveATC.net
METAROIBV 181400Z 23004KT 3500 HZ NSC 34/29 Q1004
2019-09-18 14:00:00 Wind: Southwest (230°) 2.06 m/s - Visibility: 3500 m - Weather: Haze - Temperature: 34 °C - Dew point: 29 °C - Humidity: 75.2% - Pressure: 1004 hPa
Statistics

The table below shows the detailed information of all flights to/from Lavan Island, Lavan Island Airport (OIBV).